createdAt,value
2019-02-27T00:02:16.834Z,22.77
2019-02-27T00:04:44.301Z,19.70
2019-02-27T00:07:11.775Z,16.97
2019-02-27T00:09:39.291Z,19.13
2019-02-27T00:12:07.041Z,19.27
2019-02-27T00:14:35.296Z,20.67
2019-02-27T00:17:02.858Z,20.57
2019-02-27T00:19:31.480Z,21.10
2019-02-27T00:21:58.661Z,17.37
2019-02-27T00:24:27.052Z,23.40
2019-02-27T00:26:53.639Z,21.87
2019-02-27T00:29:21.098Z,21.10
2019-02-27T00:31:48.557Z,24.47
2019-02-27T00:34:16.032Z,19.80
2019-02-27T00:36:45.083Z,20.37
2019-02-27T00:39:11.051Z,20.43
2019-02-27T00:41:38.596Z,22.10
2019-02-27T00:44:06.062Z,22.30
2019-02-27T00:46:34.292Z,18.07
2019-02-27T00:49:01.755Z,20.17
2019-02-27T00:51:29.221Z,21.90
2019-02-27T00:53:58.314Z,20.30
2019-02-27T00:56:24.213Z,21.10
2019-02-27T00:58:51.666Z,21.77
2019-02-27T01:01:19.917Z,18.92
2019-02-27T01:03:47.405Z,21.90
2019-02-27T01:06:15.365Z,21.03
2019-02-27T01:08:42.379Z,20.97
2019-02-27T01:11:09.827Z,22.00
2019-02-27T01:13:37.289Z,21.90
2019-02-27T01:16:04.752Z,18.07
2019-02-27T01:18:32.229Z,18.40
2019-02-27T01:20:59.698Z,21.87
2019-02-27T01:23:27.187Z,19.50
2019-02-27T01:25:56.876Z,21.00
2019-02-27T01:28:22.894Z,19.67
2019-02-27T01:30:50.365Z,19.17
2019-02-27T01:33:17.825Z,17.80
2019-02-27T01:35:45.299Z,17.83
2019-02-27T01:38:12.758Z,20.77
2019-02-27T01:40:40.212Z,23.27
2019-02-27T01:43:07.677Z,20.23
2019-02-27T01:45:35.268Z,20.60
2019-02-27T01:48:04.235Z,19.25
2019-02-27T01:50:32.416Z,19.43
2019-02-27T01:52:59.890Z,17.17
2019-02-27T01:55:27.344Z,17.30
2019-02-27T01:57:54.843Z,20.07
2019-02-27T02:00:23.293Z,19.10
2019-02-27T02:02:49.810Z,21.33
2019-02-27T02:05:17.310Z,18.10
2019-02-27T02:07:44.890Z,16.43
2019-02-27T02:10:12.468Z,18.07
2019-02-27T02:12:41.659Z,16.67
2019-02-27T02:15:15.556Z,19.17
2019-02-27T02:17:55.917Z,20.37
2019-02-27T02:20:33.293Z,17.57
2019-02-27T02:23:17.262Z,19.20
2019-02-27T02:25:46.967Z,16.07
2019-02-27T02:28:22.009Z,16.43
2019-02-27T02:31:05.588Z,18.27
2019-02-27T02:33:55.279Z,15.93
2019-02-27T02:36:30.733Z,17.40
2019-02-27T02:38:59.008Z,18.87
2019-02-27T02:41:34.177Z,17.37
2019-02-27T02:47:01.715Z,20.42
2019-02-27T02:49:43.996Z,16.73
2019-02-27T02:52:30.561Z,16.20
2019-02-27T02:55:11.949Z,16.17
2019-02-27T02:57:39.531Z,16.40
2019-02-27T03:03:14.809Z,18.62
2019-02-27T03:05:45.027Z,13.93
2019-02-27T03:08:20.199Z,15.27
2019-02-27T03:11:02.592Z,14.47
2019-02-27T03:13:31.748Z,13.63
2019-02-27T03:16:04.826Z,17.60
2019-02-27T03:18:36.285Z,16.23
2019-02-27T03:21:28.907Z,15.33
2019-02-27T03:24:01.982Z,15.53
2019-02-27T03:26:51.608Z,15.03
2019-02-27T03:29:22.007Z,17.23
2019-02-27T03:32:00.024Z,13.83
2019-02-27T03:34:33.827Z,16.57
2019-02-27T03:40:16.491Z,18.25
2019-02-27T03:42:47.580Z,15.70
2019-02-27T03:45:30.647Z,15.85
2019-02-27T03:48:00.206Z,13.13
2019-02-27T03:53:29.561Z,19.70
2019-02-27T03:56:08.574Z,13.87
2019-02-27T03:58:53.647Z,18.23
2019-02-27T04:04:36.633Z,18.73
2019-02-27T04:07:08.680Z,17.13
2019-02-27T04:09:36.141Z,16.03
2019-02-27T04:12:04.533Z,18.05
2019-02-27T04:14:32.007Z,17.33
2019-02-27T04:17:05.481Z,17.23
2019-02-27T04:19:26.933Z,15.17
2019-02-27T04:22:00.513Z,14.07
2019-02-27T04:24:23.234Z,16.53
2019-02-27T04:26:50.087Z,16.37
2019-02-27T04:29:17.540Z,16.60
2019-02-27T04:31:45.012Z,15.10
2019-02-27T04:34:12.462Z,18.83
2019-02-27T04:36:39.942Z,16.20
2019-02-27T04:39:07.458Z,15.80
2019-02-27T04:41:34.942Z,14.67
2019-02-27T04:44:05.381Z,16.40
2019-02-27T04:46:30.717Z,19.30
2019-02-27T04:48:58.223Z,19.10
2019-02-27T04:51:25.688Z,14.27
2019-02-27T04:53:53.150Z,17.70
2019-02-27T04:56:23.297Z,16.00
2019-02-27T04:58:48.845Z,13.60
2019-02-27T05:01:16.306Z,13.53
2019-02-27T05:03:43.777Z,14.03
2019-02-27T05:06:12.056Z,16.50
2019-02-27T05:08:38.722Z,14.80
2019-02-27T05:11:06.190Z,14.33
2019-02-27T05:13:34.568Z,15.80
2019-02-27T05:16:01.214Z,17.23
2019-02-27T05:18:29.481Z,14.87
2019-02-27T05:20:57.031Z,14.90
2019-02-27T05:23:24.605Z,14.27
2019-02-27T05:25:52.074Z,16.47
2019-02-27T05:28:19.535Z,13.20
2019-02-27T05:30:47.014Z,12.57
2019-02-27T05:33:14.557Z,13.57
2019-02-27T05:35:42.019Z,14.47
2019-02-27T05:38:09.583Z,15.30
2019-02-27T05:40:37.158Z,14.23
2019-02-27T05:43:04.624Z,14.80
2019-02-27T05:45:33.105Z,14.43
2019-02-27T05:48:00.665Z,16.30
2019-02-27T05:50:28.135Z,14.13
2019-02-27T05:52:55.592Z,16.77
2019-02-27T05:55:23.066Z,14.53
2019-02-27T05:57:50.613Z,15.50
2019-02-27T06:00:18.081Z,14.87
2019-02-27T06:02:45.680Z,17.97
2019-02-27T06:05:13.799Z,15.57
2019-02-27T06:07:41.300Z,15.07
2019-02-27T06:10:09.575Z,13.97
2019-02-27T06:12:40.005Z,15.03
2019-02-27T06:15:05.301Z,13.70
2019-02-27T06:17:42.918Z,15.20
2019-02-27T06:20:00.296Z,16.30
2019-02-27T06:22:30.386Z,13.73
2019-02-27T06:24:55.969Z,16.00
2019-02-27T06:27:23.524Z,12.93
2019-02-27T06:29:51.029Z,14.80
2019-02-27T06:32:19.284Z,16.60
2019-02-27T06:34:46.841Z,14.00
2019-02-27T06:37:15.510Z,15.47
2019-02-27T06:39:42.576Z,14.33
2019-02-27T06:42:10.051Z,14.77
2019-02-27T06:44:39.249Z,15.27
2019-02-27T06:47:07.202Z,13.27
2019-02-27T06:49:33.240Z,13.80
2019-02-27T06:52:00.727Z,16.07
2019-02-27T06:54:28.966Z,17.73
2019-02-27T06:56:56.457Z,14.57
2019-02-27T06:59:25.223Z,18.97
2019-02-27T07:01:52.185Z,10.87
2019-02-27T07:04:19.643Z,18.67
2019-02-27T07:06:47.113Z,14.03
2019-02-27T07:09:14.581Z,16.20
2019-02-27T07:11:46.376Z,14.83
2019-02-27T07:14:11.138Z,13.60
2019-02-27T07:16:38.594Z,12.87
2019-02-27T07:19:06.161Z,13.10
2019-02-27T07:21:34.716Z,16.00
2019-02-27T07:24:02.168Z,13.47
2019-02-27T07:26:29.639Z,15.67
2019-02-27T07:28:57.093Z,13.50
2019-02-27T07:31:24.567Z,15.90
2019-02-27T07:33:52.023Z,14.73
2019-02-27T07:36:20.868Z,15.50
2019-02-27T07:38:48.336Z,16.53
2019-02-27T07:41:20.288Z,15.83
2019-02-27T07:43:43.320Z,14.27
2019-02-27T07:46:10.783Z,18.37
2019-02-27T07:48:38.261Z,15.17
2019-02-27T07:51:05.725Z,16.40
2019-02-27T07:53:33.292Z,15.93
2019-02-27T07:56:00.773Z,14.07
2019-02-27T07:58:28.894Z,14.80
2019-02-27T08:00:56.569Z,19.93
2019-02-27T08:03:24.813Z,19.40
2019-02-27T08:05:52.290Z,12.97
2019-02-27T08:08:23.233Z,16.40
2019-02-27T08:10:47.215Z,20.57
2019-02-27T08:13:14.678Z,15.67
2019-02-27T08:15:42.204Z,16.33
2019-02-27T08:18:09.738Z,18.23
2019-02-27T08:20:37.933Z,21.27
2019-02-27T08:23:06.826Z,20.07
2019-02-27T08:25:33.690Z,22.23
2019-02-27T08:28:01.963Z,18.70
2019-02-27T08:30:29.440Z,17.23
2019-02-27T08:32:57.665Z,16.13
2019-02-27T08:35:25.139Z,18.27
2019-02-27T08:38:01.888Z,21.33
2019-02-27T08:40:24.069Z,20.13
2019-02-27T08:42:47.842Z,20.80
2019-02-27T08:45:19.934Z,23.10
2019-02-27T08:47:44.163Z,23.50
2019-02-27T08:50:13.926Z,22.67
2019-02-27T08:52:40.958Z,20.20
2019-02-27T08:55:08.432Z,24.60
2019-02-27T08:57:36.673Z,22.50
2019-02-27T09:00:14.200Z,22.80
2019-02-27T09:02:37.169Z,19.63
2019-02-27T09:05:04.730Z,26.03
2019-02-27T09:07:33.944Z,24.40
2019-02-27T09:10:00.887Z,29.50
2019-02-27T09:12:28.442Z,24.30
2019-02-27T09:14:56.072Z,22.60
2019-02-27T09:17:26.903Z,22.50
2019-02-27T09:19:51.648Z,25.07
2019-02-27T09:22:19.111Z,23.53
2019-02-27T09:24:46.673Z,22.40
2019-02-27T09:27:14.146Z,22.83
2019-02-27T09:29:41.727Z,21.27
2019-02-27T09:32:11.722Z,21.50
2019-02-27T09:34:37.439Z,22.23
2019-02-27T09:37:04.917Z,20.10
2019-02-27T09:39:32.397Z,21.33
2019-02-27T09:42:00.739Z,23.57
2019-02-27T09:44:28.223Z,21.87
2019-02-27T09:46:57.035Z,22.50
2019-02-27T09:49:25.396Z,25.33
2019-02-27T09:51:55.924Z,21.10
2019-02-27T09:54:20.412Z,23.20
2019-02-27T09:56:47.912Z,18.90
2019-02-27T09:59:16.812Z,23.45
2019-02-27T10:01:43.693Z,17.63
2019-02-27T10:04:11.157Z,21.93
2019-02-27T10:06:40.454Z,22.83
2019-02-27T10:09:08.676Z,21.97
2019-02-27T10:11:36.137Z,20.93
2019-02-27T10:14:03.672Z,17.40
2019-02-27T10:16:39.630Z,18.30
2019-02-27T10:19:07.923Z,19.10
2019-02-27T10:21:45.265Z,20.57
2019-02-27T10:24:11.733Z,22.97
2019-02-27T10:26:39.236Z,19.47
2019-02-27T10:29:07.547Z,16.20
2019-02-27T10:31:35.014Z,19.93
2019-02-27T10:34:02.533Z,19.40
2019-02-27T10:36:30.378Z,17.40
2019-02-27T10:38:59.368Z,21.33
2019-02-27T10:41:25.329Z,19.20
2019-02-27T10:43:54.025Z,17.37
2019-02-27T10:46:23.433Z,20.30
2019-02-27T10:48:49.436Z,20.23
2019-02-27T10:51:16.898Z,19.93
2019-02-27T10:53:44.381Z,19.70
2019-02-27T10:56:11.893Z,19.10
2019-02-27T10:58:39.366Z,19.23
2019-02-27T11:01:06.830Z,19.70
2019-02-27T11:03:34.300Z,16.30
2019-02-27T11:06:01.873Z,20.37
2019-02-27T11:08:30.106Z,18.87
2019-02-27T11:10:57.579Z,19.87
2019-02-27T11:13:25.042Z,19.77
2019-02-27T11:15:52.555Z,19.97
2019-02-27T11:18:20.008Z,17.33
2019-02-27T11:20:47.480Z,19.87
2019-02-27T11:23:15.710Z,22.33
2019-02-27T11:25:43.167Z,17.23
2019-02-27T11:28:10.650Z,22.47
2019-02-27T11:30:40.852Z,18.47
2019-02-27T11:33:08.335Z,16.33
2019-02-27T11:35:35.804Z,19.77
2019-02-27T11:38:04.305Z,19.97
2019-02-27T11:40:31.869Z,17.80
2019-02-27T11:43:01.032Z,17.53
2019-02-27T11:45:26.811Z,17.47
2019-02-27T11:47:54.365Z,16.87
2019-02-27T11:50:21.840Z,18.37
2019-02-27T11:52:50.101Z,18.60
2019-02-27T11:55:17.558Z,15.63
2019-02-27T11:57:45.122Z,17.20
2019-02-27T12:00:20.225Z,16.13
2019-02-27T12:02:43.554Z,20.07
2019-02-27T12:05:13.493Z,20.15
2019-02-27T12:07:41.719Z,17.53
2019-02-27T12:10:14.573Z,19.85
2019-02-27T12:12:42.078Z,17.73
2019-02-27T12:15:09.796Z,15.83
2019-02-27T12:17:37.935Z,20.50
2019-02-27T12:20:05.500Z,20.07
2019-02-27T12:22:35.167Z,18.73
2019-02-27T12:25:01.234Z,17.97
2019-02-27T12:27:47.727Z,15.13
2019-02-27T12:30:00.159Z,21.07
2019-02-27T12:32:25.843Z,21.27
2019-02-27T12:34:53.319Z,17.93
2019-02-27T12:37:28.035Z,18.20
2019-02-27T12:39:49.618Z,15.83
2019-02-27T12:42:16.641Z,16.43
2019-02-27T12:44:44.210Z,16.13
2019-02-27T12:47:11.687Z,14.97
2019-02-27T12:49:40.749Z,15.77
2019-02-27T12:52:09.050Z,15.37
2019-02-27T12:54:36.497Z,16.97
2019-02-27T12:57:04.805Z,13.43
2019-02-27T12:59:33.625Z,15.17
2019-02-27T13:02:08.076Z,15.00
2019-02-27T13:04:28.097Z,16.43
2019-02-27T13:06:55.558Z,15.60
2019-02-27T13:09:24.566Z,17.60
2019-02-27T13:11:51.293Z,14.23
2019-02-27T13:14:18.760Z,16.67
2019-02-27T13:16:46.492Z,18.63
2019-02-27T13:19:14.510Z,16.87
2019-02-27T13:21:41.973Z,15.80
2019-02-27T13:24:14.960Z,16.53
2019-02-27T13:26:38.450Z,18.27
2019-02-27T13:29:06.684Z,19.27
2019-02-27T13:31:34.206Z,16.07
2019-02-27T13:34:02.429Z,14.73
2019-02-27T13:36:31.592Z,16.90
2019-02-27T13:38:59.325Z,19.23
2019-02-27T13:41:25.644Z,18.60
2019-02-27T13:43:53.228Z,15.20
2019-02-27T13:46:22.732Z,14.00
2019-02-27T13:48:48.256Z,17.47
2019-02-27T13:51:15.716Z,16.30
2019-02-27T13:53:44.802Z,16.63
2019-02-27T13:56:10.784Z,20.00
2019-02-27T13:58:38.321Z,20.03
2019-02-27T14:01:06.600Z,17.77
2019-02-27T14:03:35.550Z,17.17
2019-02-27T14:06:02.438Z,16.77
2019-02-27T14:08:32.152Z,15.97
2019-02-27T14:10:57.555Z,15.33
2019-02-27T14:13:25.010Z,16.97
2019-02-27T14:15:52.474Z,18.90
2019-02-27T14:18:20.736Z,18.67
2019-02-27T14:20:48.197Z,19.17
2019-02-27T14:23:15.652Z,20.37
2019-02-27T14:25:43.123Z,19.10
2019-02-27T14:28:10.604Z,18.03
2019-02-27T14:30:43.805Z,21.27
2019-02-27T14:33:11.274Z,21.90
2019-02-27T14:35:39.589Z,16.50
2019-02-27T14:38:07.053Z,18.93
2019-02-27T14:40:37.725Z,17.93
2019-02-27T14:43:02.002Z,17.13
2019-02-27T14:45:29.471Z,16.03
2019-02-27T14:47:56.936Z,17.07
2019-02-27T14:50:24.479Z,18.10
2019-02-27T14:52:51.981Z,17.80
2019-02-27T14:55:19.457Z,18.40
2019-02-27T14:57:51.176Z,16.33
2019-02-27T15:00:17.938Z,17.80
2019-02-27T15:02:45.429Z,21.47
2019-02-27T15:05:13.667Z,23.10
2019-02-27T15:07:41.132Z,17.00
2019-02-27T15:10:08.729Z,18.13
2019-02-27T15:12:36.181Z,20.60
2019-02-27T15:15:06.824Z,19.47
2019-02-27T15:17:32.740Z,17.73
2019-02-27T15:20:01.944Z,19.77
2019-02-27T15:22:27.648Z,18.60
2019-02-27T15:24:55.235Z,22.33
2019-02-27T15:27:25.102Z,17.17
2019-02-27T15:29:51.046Z,19.27
2019-02-27T15:32:18.513Z,24.30
2019-02-27T15:34:46.651Z,19.93
2019-02-27T15:37:13.559Z,21.17
2019-02-27T15:39:41.025Z,17.37
2019-02-27T15:42:09.705Z,20.47
2019-02-27T15:44:36.014Z,21.37
2019-02-27T15:47:04.308Z,21.17
2019-02-27T15:49:31.894Z,22.90
2019-02-27T15:51:59.395Z,20.33
2019-02-27T15:54:27.779Z,17.27
2019-02-27T15:56:56.011Z,20.10
2019-02-27T15:59:23.472Z,20.67
2019-02-27T16:01:50.943Z,20.70
2019-02-27T16:04:21.152Z,21.13
2019-02-27T16:06:45.877Z,21.70
2019-02-27T16:09:15.474Z,21.63
2019-02-27T16:11:42.413Z,23.33
2019-02-27T16:14:10.390Z,21.83
2019-02-27T16:16:38.257Z,22.20
2019-02-27T16:19:08.049Z,20.00
2019-02-27T16:21:34.055Z,21.13
2019-02-27T16:24:02.281Z,20.50
2019-02-27T16:26:29.848Z,21.10
2019-02-27T16:28:57.313Z,18.53
2019-02-27T16:31:24.786Z,19.73
2019-02-27T16:33:52.253Z,21.03
2019-02-27T16:36:19.721Z,19.10
2019-02-27T16:38:47.965Z,23.27
2019-02-27T16:41:16.398Z,22.67
2019-02-27T16:43:47.716Z,21.07
2019-02-27T16:46:11.274Z,21.00
2019-02-27T16:48:38.769Z,22.33
2019-02-27T16:51:06.233Z,21.33
2019-02-27T16:53:33.703Z,25.73
2019-02-27T16:56:01.155Z,18.40
2019-02-27T16:58:32.778Z,21.53
2019-02-27T17:00:56.873Z,20.77
2019-02-27T17:03:24.353Z,18.53
2019-02-27T17:05:51.817Z,20.77
2019-02-27T17:08:19.296Z,19.20
2019-02-27T17:10:51.707Z,21.87
2019-02-27T17:13:15.399Z,22.47
2019-02-27T17:15:42.570Z,20.83
2019-02-27T17:18:10.041Z,20.00
2019-02-27T17:20:37.524Z,26.40
2019-02-27T17:23:10.499Z,19.20
2019-02-27T17:25:32.640Z,18.60
2019-02-27T17:28:00.197Z,21.90
2019-02-27T17:30:28.401Z,24.90
2019-02-27T17:32:56.661Z,21.80
2019-02-27T17:35:24.299Z,21.87
2019-02-27T17:37:51.704Z,22.90
2019-02-27T17:40:19.959Z,20.60
2019-02-27T17:42:53.134Z,20.57
2019-02-27T17:45:16.339Z,20.40
2019-02-27T17:47:44.590Z,19.17
2019-02-27T17:50:12.076Z,20.13
2019-02-27T17:52:39.574Z,20.90
2019-02-27T17:55:07.488Z,19.27
2019-02-27T17:57:34.512Z,19.93
2019-02-27T18:00:01.994Z,23.63
2019-02-27T18:02:30.142Z,18.57
2019-02-27T18:04:57.737Z,22.37
2019-02-27T18:09:52.175Z,21.40
2019-02-27T18:12:21.603Z,18.65
2019-02-27T18:14:49.409Z,21.90
2019-02-27T18:17:16.877Z,23.40
2019-02-27T18:19:44.411Z,21.73
2019-02-27T18:22:14.666Z,20.73
2019-02-27T18:24:39.570Z,20.47
2019-02-27T18:27:10.139Z,22.00
2019-02-27T18:29:41.131Z,22.33
2019-02-27T18:32:07.082Z,19.90
2019-02-27T18:34:34.560Z,20.10
2019-02-27T18:37:02.249Z,21.13
2019-02-27T18:39:29.708Z,21.00
2019-02-27T18:41:57.986Z,18.57
2019-02-27T18:44:25.551Z,21.00
2019-02-27T18:46:58.601Z,21.90
2019-02-27T18:49:22.402Z,19.20
2019-02-27T18:51:49.906Z,22.03
2019-02-27T18:54:21.702Z,21.97
2019-02-27T18:56:46.379Z,18.00
2019-02-27T18:59:13.944Z,22.03
2019-02-27T19:01:45.160Z,20.50
2019-02-27T19:04:08.875Z,24.17
2019-02-27T19:06:36.370Z,21.30
2019-02-27T19:09:03.850Z,17.87
2019-02-27T19:11:31.303Z,23.03
2019-02-27T19:13:58.762Z,20.53
2019-02-27T19:16:26.454Z,25.33
2019-02-27T19:18:54.756Z,17.80
2019-02-27T19:21:22.199Z,22.87
2019-02-27T19:23:52.636Z,22.13
2019-02-27T19:26:18.066Z,21.10
2019-02-27T19:28:45.687Z,20.10
2019-02-27T19:31:13.574Z,21.80
2019-02-27T19:33:40.736Z,20.07
2019-02-27T19:36:08.996Z,20.93
2019-02-27T19:38:36.549Z,25.27
2019-02-27T19:41:04.696Z,23.83
2019-02-27T19:43:32.327Z,22.60
2019-02-27T19:46:00.977Z,23.77
2019-02-27T19:48:28.982Z,22.50
2019-02-27T19:50:56.007Z,23.00
2019-02-27T19:53:23.995Z,21.00
2019-02-27T19:55:51.549Z,28.05
2019-02-27T19:58:19.127Z,23.57
2019-02-27T20:00:48.731Z,22.43
2019-02-27T20:03:15.336Z,23.10
2019-02-27T20:05:42.835Z,21.10
2019-02-27T20:08:11.083Z,24.83
2019-02-27T20:10:38.548Z,22.67
2019-02-27T20:13:06.973Z,24.07
2019-02-27T20:15:34.319Z,24.30
2019-02-27T20:18:01.857Z,20.57
2019-02-27T20:20:30.095Z,24.47
2019-02-27T20:22:57.004Z,24.07
2019-02-27T20:25:25.254Z,24.23
2019-02-27T20:27:52.716Z,25.07
2019-02-27T20:30:20.192Z,24.03
2019-02-27T20:32:47.678Z,25.43
2019-02-27T20:35:17.202Z,22.63
2019-02-27T20:37:43.443Z,22.37
2019-02-27T20:40:11.666Z,20.07
2019-02-27T20:42:39.155Z,26.13
2019-02-27T20:45:08.654Z,24.90
2019-02-27T20:47:34.946Z,25.03
2019-02-27T20:50:02.412Z,22.13
2019-02-27T20:52:30.570Z,23.33
2019-02-27T20:55:00.009Z,22.83
2019-02-27T20:57:27.121Z,20.90
2019-02-27T21:00:00.743Z,26.43
2019-02-27T21:02:22.082Z,22.83
2019-02-27T21:04:49.596Z,24.23
2019-02-27T21:07:22.275Z,25.70
2019-02-27T21:09:45.896Z,22.47
2019-02-27T21:12:12.914Z,22.93
2019-02-27T21:14:41.152Z,22.17
2019-02-27T21:17:08.712Z,25.70
2019-02-27T21:19:37.261Z,23.90
2019-02-27T21:22:03.769Z,22.17
2019-02-27T21:24:31.342Z,23.20
2019-02-27T21:26:58.797Z,21.50
2019-02-27T21:29:26.357Z,24.23
2019-02-27T21:31:53.825Z,23.57
2019-02-27T21:34:21.298Z,24.80
2019-02-27T21:36:49.554Z,25.23
2019-02-27T21:39:17.116Z,22.37
2019-02-27T21:41:45.645Z,24.20
2019-02-27T21:44:12.962Z,25.87
2019-02-27T21:46:46.197Z,24.60
2019-02-27T21:49:08.107Z,24.93
2019-02-27T21:51:35.605Z,21.03
2019-02-27T21:54:04.670Z,23.77
2019-02-27T21:56:31.929Z,25.83
2019-02-27T21:59:04.652Z,24.10
2019-02-27T22:01:29.153Z,23.93
2019-02-27T22:03:57.120Z,22.27
2019-02-27T22:06:24.659Z,20.87
2019-02-27T22:08:52.050Z,23.77
2019-02-27T22:11:19.511Z,22.37
2019-02-27T22:13:47.007Z,25.07
2019-02-27T22:16:14.482Z,24.47
2019-02-27T22:18:46.710Z,22.87
2019-02-27T22:21:10.309Z,19.90
2019-02-27T22:23:39.280Z,25.93
2019-02-27T22:26:06.779Z,24.37
2019-02-27T22:28:34.251Z,24.00
2019-02-27T22:31:06.041Z,24.53
2019-02-27T22:33:30.173Z,24.73
2019-02-27T22:35:58.615Z,24.57
2019-02-27T22:38:26.770Z,23.17
2019-02-27T22:40:54.386Z,23.03
2019-02-27T22:43:22.711Z,31.20
2019-02-27T22:45:49.537Z,27.10
2019-02-27T22:48:17.102Z,26.17
2019-02-27T22:50:44.572Z,30.37
2019-02-27T22:53:12.036Z,24.57
2019-02-27T22:55:42.175Z,27.30
2019-02-27T22:58:07.383Z,26.23
2019-02-27T23:03:34.214Z,26.87
2019-02-27T23:06:02.440Z,23.27
2019-02-27T23:08:29.913Z,26.30
2019-02-27T23:10:57.419Z,22.93
2019-02-27T23:13:24.882Z,30.20
2019-02-27T23:15:52.365Z,27.40
2019-02-27T23:18:20.603Z,25.20
2019-02-27T23:20:48.069Z,24.23
2019-02-27T23:23:15.548Z,24.03
2019-02-27T23:25:43.012Z,24.90
2019-02-27T23:28:10.490Z,25.43
2019-02-27T23:30:38.088Z,25.53
2019-02-27T23:33:05.547Z,22.80
2019-02-27T23:35:33.010Z,28.63
2019-02-27T23:38:03.231Z,27.07
2019-02-27T23:40:28.084Z,25.07
2019-02-27T23:42:55.547Z,24.93
2019-02-27T23:45:23.154Z,24.13
2019-02-27T23:47:50.703Z,23.60
2019-02-27T23:50:18.945Z,28.63
2019-02-27T23:52:46.394Z,26.93
2019-02-27T23:55:14.543Z,31.67
2019-02-27T23:57:41.993Z,28.27
